CPQ849 KFNL-KLBB
Flight info
| Callsign | CPQ849 |
|---|---|
| Flight time | 1h 23m |
| Altitude | 25000 |
| Route | PIKES3 PUB TBE WALCT |
| Aircraft | DH8D/M-SDE2E3FGRUY/L |
Departure
| Time | 2026-04-19 16:53 |
|---|---|
| Airport | Northern Colorado Regional Airport (KFNL) |
Arrival
| Time | 2026-04-19 18:17 |
|---|---|
| Airport | Lubbock Preston Smith International Airport (KLBB) |
| Time | Latitude | Longitude | Altitude | Speed | Heading |
|---|---|---|---|---|---|
| 2026-04-19 16:12 | 40.45005 | -105.00843 | 5006 ft | 0 kts | 71° |
| 2026-04-19 16:43 | 40.45004 | -105.00847 | 5006 ft | 2 kts | 71° |
| 2026-04-19 16:44 | 40.44999 | -105.00865 | 5006 ft | 2 kts | 71° |
| 2026-04-19 16:44 | 40.44996 | -105.00884 | 5006 ft | 2 kts | 91° |
| 2026-04-19 16:44 | 40.44999 | -105.00903 | 5006 ft | 2 kts | 119° |
| 2026-04-19 16:44 | 40.45009 | -105.00917 | 5005 ft | 2 kts | 147° |
| 2026-04-19 16:45 | 40.45018 | -105.00923 | 5005 ft | 0 kts | 161° |
| 2026-04-19 16:47 | 40.45018 | -105.00922 | 5005 ft | 0 kts | 161° |
| 2026-04-19 16:47 | 40.45007 | -105.00918 | 5005 ft | 3 kts | 161° |
| 2026-04-19 16:48 | 40.44977 | -105.00905 | 5006 ft | 6 kts | 171° |
| 2026-04-19 16:48 | 40.44939 | -105.00941 | 5007 ft | 8 kts | 246° |
| 2026-04-19 16:48 | 40.44981 | -105.01010 | 5006 ft | 13 kts | 340° |
| 2026-04-19 16:48 | 40.45088 | -105.01059 | 5002 ft | 18 kts | 340° |
| 2026-04-19 16:49 | 40.45206 | -105.01113 | 4999 ft | 16 kts | 340° |
| 2026-04-19 16:49 | 40.45307 | -105.01159 | 4997 ft | 15 kts | 340° |
| 2026-04-19 16:49 | 40.45411 | -105.01208 | 4994 ft | 17 kts | 341° |
| 2026-04-19 16:49 | 40.45533 | -105.01264 | 4991 ft | 20 kts | 340° |
| 2026-04-19 16:50 | 40.45677 | -105.01331 | 4987 ft | 22 kts | 342° |
| 2026-04-19 16:50 | 40.45807 | -105.01392 | 4984 ft | 17 kts | 340° |
| 2026-04-19 16:50 | 40.45907 | -105.01439 | 4982 ft | 12 kts | 340° |
| 2026-04-19 16:50 | 40.45979 | -105.01472 | 4981 ft | 9 kts | 340° |
| 2026-04-19 16:51 | 40.46059 | -105.01509 | 4979 ft | 14 kts | 340° |
| 2026-04-19 16:51 | 40.46153 | -105.01552 | 4977 ft | 13 kts | 340° |
| 2026-04-19 16:51 | 40.46237 | -105.01595 | 4976 ft | 11 kts | 322° |
| 2026-04-19 16:51 | 40.46239 | -105.01683 | 4976 ft | 8 kts | 252° |
| 2026-04-19 16:52 | 40.46196 | -105.01719 | 4978 ft | 13 kts | 172° |
| 2026-04-19 16:52 | 40.46002 | -105.01637 | 4983 ft | 60 kts | 160° |
| 2026-04-19 16:52 | 40.45353 | -105.01334 | 4993 ft | 131 kts | 160° |
| 2026-04-19 16:52 | 40.44351 | -105.00874 | 5071 ft | 164 kts | 161° |
| 2026-04-19 16:53 | 40.43256 | -105.00376 | 5505 ft | 171 kts | 160° |
| 2026-04-19 16:53 | 40.42125 | -104.99807 | 5921 ft | 184 kts | 159° |
| 2026-04-19 16:53 | 40.40861 | -104.99191 | 6321 ft | 197 kts | 160° |
| 2026-04-19 16:53 | 40.39567 | -104.98552 | 6736 ft | 203 kts | 160° |
| 2026-04-19 16:54 | 40.38276 | -104.97818 | 7186 ft | 206 kts | 155° |
| 2026-04-19 16:54 | 40.36966 | -104.96990 | 7637 ft | 210 kts | 156° |
| 2026-04-19 16:54 | 40.35643 | -104.96178 | 8073 ft | 213 kts | 157° |
| 2026-04-19 16:54 | 40.34291 | -104.95372 | 8504 ft | 216 kts | 158° |
| 2026-04-19 16:55 | 40.32909 | -104.94564 | 8925 ft | 219 kts | 158° |
| 2026-04-19 16:55 | 40.30091 | -104.92951 | 9807 ft | 224 kts | 159° |
| 2026-04-19 16:55 | 40.28651 | -104.92139 | 10239 ft | 226 kts | 160° |
| 2026-04-19 16:56 | 40.27217 | -104.91335 | 10651 ft | 229 kts | 160° |
| 2026-04-19 16:56 | 40.25752 | -104.90517 | 11062 ft | 229 kts | 160° |
| 2026-04-19 16:56 | 40.24268 | -104.89689 | 11430 ft | 232 kts | 160° |
| 2026-04-19 16:56 | 40.22789 | -104.88869 | 11793 ft | 235 kts | 160° |
| 2026-04-19 16:57 | 40.21238 | -104.88014 | 12034 ft | 242 kts | 160° |
| 2026-04-19 16:57 | 40.19684 | -104.87154 | 12375 ft | 244 kts | 160° |
| 2026-04-19 16:57 | 40.18131 | -104.86298 | 12750 ft | 246 kts | 160° |
| 2026-04-19 16:57 | 40.16546 | -104.85421 | 13100 ft | 247 kts | 161° |
| 2026-04-19 16:58 | 40.14941 | -104.84538 | 13318 ft | 256 kts | 161° |
| 2026-04-19 16:58 | 40.13265 | -104.83618 | 13539 ft | 263 kts | 161° |
| 2026-04-19 16:58 | 40.11566 | -104.82684 | 13812 ft | 267 kts | 161° |
| 2026-04-19 16:58 | 40.09848 | -104.81737 | 14082 ft | 269 kts | 161° |
| 2026-04-19 16:59 | 40.08141 | -104.80797 | 14366 ft | 270 kts | 161° |
| 2026-04-19 16:59 | 40.06413 | -104.79848 | 14640 ft | 271 kts | 161° |
| 2026-04-19 16:59 | 40.04666 | -104.78889 | 14915 ft | 271 kts | 161° |
| 2026-04-19 16:59 | 40.02919 | -104.77932 | 15192 ft | 273 kts | 161° |
| 2026-04-19 17:00 | 40.01168 | -104.76974 | 15471 ft | 274 kts | 161° |
| 2026-04-19 17:00 | 39.99417 | -104.76018 | 15742 ft | 274 kts | 161° |
| 2026-04-19 17:00 | 39.97652 | -104.75054 | 16019 ft | 276 kts | 161° |
| 2026-04-19 17:00 | 39.95868 | -104.74081 | 16296 ft | 278 kts | 161° |
| 2026-04-19 17:01 | 39.94096 | -104.73116 | 16573 ft | 279 kts | 161° |
| 2026-04-19 17:01 | 39.92287 | -104.72130 | 16856 ft | 281 kts | 161° |
| 2026-04-19 17:01 | 39.90492 | -104.71152 | 17131 ft | 282 kts | 161° |
| 2026-04-19 17:01 | 39.88662 | -104.70154 | 17411 ft | 283 kts | 161° |
| 2026-04-19 17:02 | 39.86818 | -104.69150 | 17691 ft | 284 kts | 161° |
| 2026-04-19 17:02 | 39.84961 | -104.68137 | 17967 ft | 285 kts | 161° |
| 2026-04-19 17:02 | 39.83106 | -104.67127 | 18234 ft | 286 kts | 161° |
| 2026-04-19 17:02 | 39.81259 | -104.66159 | 18488 ft | 284 kts | 166° |
| 2026-04-19 17:03 | 39.79355 | -104.65500 | 18731 ft | 282 kts | 172° |
| 2026-04-19 17:03 | 39.77445 | -104.64945 | 18968 ft | 283 kts | 173° |
| 2026-04-19 17:03 | 39.75517 | -104.64387 | 19120 ft | 287 kts | 172° |
| 2026-04-19 17:03 | 39.73562 | -104.63822 | 19281 ft | 291 kts | 172° |
| 2026-04-19 17:04 | 39.71549 | -104.63236 | 19461 ft | 294 kts | 173° |
| 2026-04-19 17:04 | 39.69561 | -104.62654 | 19647 ft | 296 kts | 172° |
| 2026-04-19 17:04 | 39.67531 | -104.62058 | 19846 ft | 298 kts | 172° |
| 2026-04-19 17:04 | 39.65509 | -104.61465 | 20043 ft | 300 kts | 172° |
| 2026-04-19 17:05 | 39.63467 | -104.60866 | 20246 ft | 301 kts | 172° |
| 2026-04-19 17:05 | 39.61441 | -104.60270 | 20442 ft | 301 kts | 172° |
| 2026-04-19 17:05 | 39.59391 | -104.59667 | 20633 ft | 302 kts | 172° |
| 2026-04-19 17:05 | 39.57341 | -104.59058 | 20822 ft | 302 kts | 172° |
| 2026-04-19 17:06 | 39.55290 | -104.58463 | 21009 ft | 302 kts | 173° |
| 2026-04-19 17:06 | 39.53241 | -104.57862 | 21186 ft | 302 kts | 173° |
| 2026-04-19 17:06 | 39.51185 | -104.57269 | 21351 ft | 303 kts | 173° |
| 2026-04-19 17:06 | 39.49136 | -104.56667 | 21501 ft | 303 kts | 173° |
| 2026-04-19 17:07 | 39.47077 | -104.56055 | 21655 ft | 303 kts | 173° |
| 2026-04-19 17:07 | 39.45021 | -104.55458 | 21796 ft | 303 kts | 173° |
| 2026-04-19 17:07 | 39.42982 | -104.54870 | 21951 ft | 303 kts | 173° |
| 2026-04-19 17:07 | 39.40917 | -104.54273 | 22100 ft | 303 kts | 173° |
| 2026-04-19 17:08 | 39.38842 | -104.53666 | 22245 ft | 304 kts | 173° |
| 2026-04-19 17:08 | 39.36807 | -104.53064 | 22373 ft | 304 kts | 173° |
| 2026-04-19 17:08 | 39.34739 | -104.52451 | 22491 ft | 304 kts | 173° |
| 2026-04-19 17:08 | 39.32684 | -104.51855 | 22614 ft | 303 kts | 174° |
| 2026-04-19 17:09 | 39.30602 | -104.51251 | 22718 ft | 303 kts | 173° |
| 2026-04-19 17:09 | 39.28577 | -104.50658 | 22824 ft | 302 kts | 174° |
| 2026-04-19 17:09 | 39.26506 | -104.50052 | 22931 ft | 301 kts | 173° |
| 2026-04-19 17:09 | 39.24459 | -104.49453 | 23005 ft | 300 kts | 174° |
| 2026-04-19 17:10 | 39.22456 | -104.48868 | 23068 ft | 299 kts | 174° |
| 2026-04-19 17:10 | 39.20432 | -104.48278 | 23127 ft | 298 kts | 174° |
| 2026-04-19 17:10 | 39.18397 | -104.47687 | 23172 ft | 298 kts | 174° |
| 2026-04-19 17:10 | 39.16393 | -104.47105 | 23212 ft | 297 kts | 174° |
| 2026-04-19 17:11 | 39.14373 | -104.46519 | 23204 ft | 299 kts | 174° |
| 2026-04-19 17:11 | 39.12339 | -104.45930 | 23208 ft | 300 kts | 174° |
| 2026-04-19 17:11 | 39.10281 | -104.45334 | 23229 ft | 300 kts | 174° |
| 2026-04-19 17:11 | 39.08241 | -104.44743 | 23247 ft | 300 kts | 174° |
| 2026-04-19 17:12 | 39.06203 | -104.44152 | 23270 ft | 300 kts | 174° |
| 2026-04-19 17:12 | 39.04188 | -104.43568 | 23309 ft | 300 kts | 174° |
| 2026-04-19 17:12 | 39.02145 | -104.42978 | 23310 ft | 301 kts | 174° |
| 2026-04-19 17:12 | 39.00092 | -104.42384 | 23318 ft | 301 kts | 174° |
| 2026-04-19 17:13 | 38.98058 | -104.41797 | 23328 ft | 301 kts | 174° |
| 2026-04-19 17:13 | 38.96026 | -104.41211 | 23325 ft | 302 kts | 174° |
| 2026-04-19 17:13 | 38.93958 | -104.40615 | 23329 ft | 303 kts | 174° |
| 2026-04-19 17:13 | 38.91878 | -104.40049 | 23322 ft | 304 kts | 179° |
| 2026-04-19 17:14 | 38.89821 | -104.39948 | 23327 ft | 298 kts | 190° |
| 2026-04-19 17:14 | 38.87730 | -104.40063 | 23316 ft | 301 kts | 191° |
| 2026-04-19 17:14 | 38.85618 | -104.40185 | 23309 ft | 304 kts | 190° |
| 2026-04-19 17:14 | 38.83511 | -104.40303 | 23308 ft | 308 kts | 190° |
| 2026-04-19 17:15 | 38.81352 | -104.40420 | 23304 ft | 312 kts | 190° |
| 2026-04-19 17:15 | 38.79169 | -104.40535 | 23295 ft | 315 kts | 189° |
| 2026-04-19 17:15 | 38.76981 | -104.40649 | 23292 ft | 319 kts | 189° |
| 2026-04-19 17:15 | 38.74738 | -104.40762 | 23283 ft | 322 kts | 189° |
| 2026-04-19 17:16 | 38.72481 | -104.40875 | 23292 ft | 325 kts | 189° |
| 2026-04-19 17:16 | 38.70224 | -104.40988 | 23301 ft | 328 kts | 189° |
| 2026-04-19 17:16 | 38.67920 | -104.41102 | 23305 ft | 330 kts | 189° |
| 2026-04-19 17:16 | 38.65609 | -104.41215 | 23297 ft | 332 kts | 189° |
| 2026-04-19 17:17 | 38.63317 | -104.41326 | 23296 ft | 333 kts | 189° |
| 2026-04-19 17:17 | 38.61001 | -104.41439 | 23287 ft | 335 kts | 189° |
| 2026-04-19 17:17 | 38.58664 | -104.41553 | 23289 ft | 335 kts | 189° |
| 2026-04-19 17:17 | 38.56343 | -104.41664 | 23287 ft | 334 kts | 189° |
| 2026-04-19 17:18 | 38.54005 | -104.41777 | 23281 ft | 334 kts | 189° |
| 2026-04-19 17:18 | 38.51690 | -104.41889 | 23267 ft | 334 kts | 189° |
| 2026-04-19 17:18 | 38.49374 | -104.42001 | 23270 ft | 333 kts | 189° |
| 2026-04-19 17:18 | 38.47046 | -104.42114 | 23273 ft | 334 kts | 189° |
| 2026-04-19 17:19 | 38.44722 | -104.42228 | 23277 ft | 334 kts | 189° |
| 2026-04-19 17:19 | 38.42431 | -104.42340 | 23262 ft | 335 kts | 188° |
| 2026-04-19 17:19 | 38.40070 | -104.42455 | 23251 ft | 336 kts | 189° |
| 2026-04-19 17:19 | 38.37752 | -104.42569 | 23238 ft | 338 kts | 188° |
| 2026-04-19 17:20 | 38.35371 | -104.42687 | 23239 ft | 339 kts | 188° |
| 2026-04-19 17:20 | 38.33040 | -104.42799 | 23242 ft | 340 kts | 189° |
| 2026-04-19 17:20 | 38.30663 | -104.42866 | 23222 ft | 344 kts | 183° |
| 2026-04-19 17:20 | 38.28301 | -104.42060 | 23232 ft | 357 kts | 157° |
| 2026-04-19 17:21 | 38.26189 | -104.40441 | 23227 ft | 361 kts | 150° |
| 2026-04-19 17:21 | 38.24067 | -104.38700 | 23241 ft | 362 kts | 150° |
| 2026-04-19 17:21 | 38.21941 | -104.36953 | 23242 ft | 363 kts | 150° |
| 2026-04-19 17:21 | 38.19838 | -104.35229 | 23237 ft | 365 kts | 150° |
| 2026-04-19 17:22 | 38.17676 | -104.33463 | 23239 ft | 366 kts | 151° |
| 2026-04-19 17:22 | 38.15529 | -104.31714 | 23243 ft | 367 kts | 151° |
| 2026-04-19 17:22 | 38.13403 | -104.29984 | 23262 ft | 367 kts | 151° |
| 2026-04-19 17:22 | 38.11230 | -104.28219 | 23273 ft | 367 kts | 152° |
| 2026-04-19 17:23 | 38.09092 | -104.26485 | 23277 ft | 368 kts | 152° |
| 2026-04-19 17:23 | 38.06922 | -104.24728 | 23270 ft | 369 kts | 151° |
| 2026-04-19 17:23 | 38.04780 | -104.22993 | 23269 ft | 369 kts | 151° |
| 2026-04-19 17:23 | 38.02611 | -104.21240 | 23264 ft | 368 kts | 152° |
| 2026-04-19 17:24 | 38.00474 | -104.19513 | 23269 ft | 367 kts | 151° |
| 2026-04-19 17:24 | 37.98322 | -104.17776 | 23264 ft | 367 kts | 151° |
| 2026-04-19 17:24 | 37.96156 | -104.16030 | 23262 ft | 366 kts | 151° |
| 2026-04-19 17:24 | 37.94032 | -104.14317 | 23264 ft | 364 kts | 151° |
| 2026-04-19 17:25 | 37.91907 | -104.12605 | 23261 ft | 362 kts | 151° |
| 2026-04-19 17:25 | 37.89775 | -104.10889 | 23261 ft | 360 kts | 151° |
| 2026-04-19 17:25 | 37.87667 | -104.09194 | 23261 ft | 358 kts | 151° |
| 2026-04-19 17:25 | 37.85555 | -104.07497 | 23258 ft | 357 kts | 152° |
| 2026-04-19 17:26 | 37.83461 | -104.05816 | 23258 ft | 356 kts | 152° |
| 2026-04-19 17:26 | 37.81403 | -104.04166 | 23267 ft | 355 kts | 152° |
| 2026-04-19 17:26 | 37.79297 | -104.02478 | 23264 ft | 354 kts | 151° |
| 2026-04-19 17:26 | 37.77233 | -104.00825 | 23269 ft | 353 kts | 152° |
| 2026-04-19 17:27 | 37.75171 | -103.99174 | 23272 ft | 353 kts | 152° |
| 2026-04-19 17:27 | 37.73090 | -103.97510 | 23269 ft | 352 kts | 152° |
| 2026-04-19 17:27 | 37.71023 | -103.95858 | 23272 ft | 352 kts | 152° |
| 2026-04-19 17:27 | 37.68966 | -103.94215 | 23269 ft | 351 kts | 152° |
| 2026-04-19 17:28 | 37.66886 | -103.92554 | 23269 ft | 351 kts | 152° |
| 2026-04-19 17:28 | 37.64827 | -103.90913 | 23268 ft | 351 kts | 152° |
| 2026-04-19 17:28 | 37.62766 | -103.89270 | 23263 ft | 350 kts | 152° |
| 2026-04-19 17:28 | 37.60712 | -103.87633 | 23262 ft | 350 kts | 152° |
| 2026-04-19 17:29 | 37.58681 | -103.86016 | 23271 ft | 349 kts | 152° |
| 2026-04-19 17:29 | 37.56614 | -103.84371 | 23275 ft | 349 kts | 152° |
| 2026-04-19 17:29 | 37.54572 | -103.82748 | 23276 ft | 348 kts | 152° |
| 2026-04-19 17:29 | 37.52538 | -103.81131 | 23274 ft | 348 kts | 152° |
| 2026-04-19 17:30 | 37.50484 | -103.79501 | 23274 ft | 348 kts | 152° |
| 2026-04-19 17:30 | 37.48433 | -103.77872 | 23272 ft | 348 kts | 152° |
| 2026-04-19 17:30 | 37.46389 | -103.76253 | 23270 ft | 348 kts | 152° |
| 2026-04-19 17:30 | 37.44339 | -103.74627 | 23274 ft | 347 kts | 152° |
| 2026-04-19 17:31 | 37.42302 | -103.73015 | 23282 ft | 347 kts | 152° |
| 2026-04-19 17:31 | 37.40269 | -103.71406 | 23282 ft | 347 kts | 152° |
| 2026-04-19 17:31 | 37.38214 | -103.69780 | 23282 ft | 346 kts | 152° |
| 2026-04-19 17:31 | 37.36198 | -103.68187 | 23284 ft | 347 kts | 152° |
| 2026-04-19 17:32 | 37.34159 | -103.66576 | 23287 ft | 346 kts | 152° |
| 2026-04-19 17:32 | 37.32125 | -103.64970 | 23291 ft | 346 kts | 152° |
| 2026-04-19 17:32 | 37.30070 | -103.63349 | 23290 ft | 346 kts | 152° |
| 2026-04-19 17:32 | 37.28040 | -103.61749 | 23295 ft | 346 kts | 152° |
| 2026-04-19 17:33 | 37.25988 | -103.60175 | 23291 ft | 344 kts | 156° |
| 2026-04-19 17:33 | 37.23821 | -103.58989 | 23296 ft | 339 kts | 165° |
| 2026-04-19 17:33 | 37.21610 | -103.57948 | 23288 ft | 339 kts | 165° |
| 2026-04-19 17:33 | 37.19395 | -103.56909 | 23287 ft | 339 kts | 165° |
| 2026-04-19 17:34 | 37.17190 | -103.55874 | 23286 ft | 339 kts | 165° |
| 2026-04-19 17:34 | 37.14974 | -103.54831 | 23287 ft | 339 kts | 165° |
| 2026-04-19 17:34 | 37.12773 | -103.53793 | 23291 ft | 339 kts | 165° |
| 2026-04-19 17:34 | 37.10586 | -103.52760 | 23299 ft | 338 kts | 165° |
| 2026-04-19 17:35 | 37.08364 | -103.51710 | 23294 ft | 339 kts | 165° |
| 2026-04-19 17:35 | 37.06159 | -103.50668 | 23295 ft | 339 kts | 165° |
| 2026-04-19 17:35 | 37.03954 | -103.49627 | 23288 ft | 339 kts | 165° |
| 2026-04-19 17:35 | 37.01766 | -103.48594 | 23288 ft | 339 kts | 165° |
| 2026-04-19 17:36 | 36.99548 | -103.47546 | 23290 ft | 339 kts | 165° |
| 2026-04-19 17:36 | 36.97341 | -103.46504 | 23290 ft | 338 kts | 165° |
| 2026-04-19 17:36 | 36.95166 | -103.45478 | 23291 ft | 338 kts | 165° |
| 2026-04-19 17:36 | 36.92965 | -103.44441 | 23286 ft | 338 kts | 165° |
| 2026-04-19 17:37 | 36.90754 | -103.43398 | 23287 ft | 338 kts | 165° |
| 2026-04-19 17:37 | 36.88546 | -103.42358 | 23287 ft | 337 kts | 165° |
| 2026-04-19 17:37 | 36.86355 | -103.41325 | 23288 ft | 337 kts | 165° |
| 2026-04-19 17:37 | 36.84163 | -103.40294 | 23296 ft | 337 kts | 165° |
| 2026-04-19 17:38 | 36.81969 | -103.39262 | 23297 ft | 337 kts | 165° |
| 2026-04-19 17:38 | 36.79759 | -103.38224 | 23288 ft | 337 kts | 165° |
| 2026-04-19 17:38 | 36.77565 | -103.37193 | 23291 ft | 337 kts | 165° |
| 2026-04-19 17:38 | 36.75368 | -103.36162 | 23293 ft | 338 kts | 165° |
| 2026-04-19 17:39 | 36.73180 | -103.35136 | 23290 ft | 338 kts | 165° |
| 2026-04-19 17:39 | 36.70975 | -103.34101 | 23295 ft | 337 kts | 165° |
| 2026-04-19 17:39 | 36.68784 | -103.33074 | 23296 ft | 336 kts | 166° |
| 2026-04-19 17:39 | 36.66591 | -103.32046 | 23293 ft | 336 kts | 166° |
| 2026-04-19 17:40 | 36.64399 | -103.31021 | 23286 ft | 336 kts | 165° |
| 2026-04-19 17:40 | 36.62220 | -103.30001 | 23293 ft | 335 kts | 165° |
| 2026-04-19 17:40 | 36.60038 | -103.28981 | 23298 ft | 335 kts | 165° |
| 2026-04-19 17:40 | 36.57853 | -103.27960 | 23307 ft | 335 kts | 165° |
| 2026-04-19 17:41 | 36.55688 | -103.26949 | 23311 ft | 335 kts | 165° |
| 2026-04-19 17:41 | 36.53505 | -103.25931 | 23312 ft | 335 kts | 165° |
| 2026-04-19 17:41 | 36.51327 | -103.24915 | 23308 ft | 335 kts | 166° |
| 2026-04-19 17:41 | 36.49148 | -103.23900 | 23309 ft | 336 kts | 166° |
| 2026-04-19 17:42 | 36.46953 | -103.22878 | 23307 ft | 336 kts | 165° |
| 2026-04-19 17:42 | 36.44751 | -103.21854 | 23302 ft | 337 kts | 165° |
| 2026-04-19 17:42 | 36.42571 | -103.20839 | 23306 ft | 337 kts | 165° |
| 2026-04-19 17:42 | 36.40351 | -103.19809 | 23309 ft | 339 kts | 166° |
| 2026-04-19 17:43 | 36.38147 | -103.18785 | 23320 ft | 340 kts | 165° |
| 2026-04-19 17:43 | 36.35947 | -103.17764 | 23321 ft | 341 kts | 165° |
| 2026-04-19 17:43 | 36.33724 | -103.16733 | 23318 ft | 343 kts | 165° |
| 2026-04-19 17:43 | 36.31457 | -103.15682 | 23316 ft | 345 kts | 165° |
| 2026-04-19 17:44 | 36.29202 | -103.14638 | 23311 ft | 347 kts | 165° |
| 2026-04-19 17:44 | 36.26941 | -103.13591 | 23315 ft | 348 kts | 165° |
| 2026-04-19 17:44 | 36.24684 | -103.12546 | 23309 ft | 349 kts | 165° |
| 2026-04-19 17:44 | 36.22419 | -103.11498 | 23305 ft | 350 kts | 165° |
| 2026-04-19 17:45 | 36.20132 | -103.10440 | 23307 ft | 351 kts | 165° |
| 2026-04-19 17:45 | 36.17815 | -103.09369 | 23311 ft | 352 kts | 165° |
| 2026-04-19 17:45 | 36.15515 | -103.08307 | 23309 ft | 352 kts | 165° |
| 2026-04-19 17:45 | 36.13223 | -103.07248 | 23311 ft | 352 kts | 165° |
| 2026-04-19 17:46 | 36.10953 | -103.06200 | 23308 ft | 352 kts | 165° |
| 2026-04-19 17:46 | 36.08631 | -103.05128 | 23309 ft | 351 kts | 165° |
| 2026-04-19 17:46 | 36.06369 | -103.04086 | 23306 ft | 351 kts | 165° |
| 2026-04-19 17:46 | 36.04076 | -103.03030 | 23311 ft | 350 kts | 165° |
| 2026-04-19 17:47 | 36.01780 | -103.01973 | 23311 ft | 350 kts | 165° |
| 2026-04-19 17:47 | 35.99507 | -103.00928 | 23305 ft | 349 kts | 165° |
| 2026-04-19 17:47 | 35.97245 | -102.99888 | 23311 ft | 349 kts | 165° |
| 2026-04-19 17:47 | 35.94976 | -102.98845 | 23312 ft | 348 kts | 165° |
| 2026-04-19 17:48 | 35.92698 | -102.97800 | 23313 ft | 348 kts | 165° |
| 2026-04-19 17:48 | 35.90432 | -102.96761 | 23316 ft | 348 kts | 165° |
| 2026-04-19 17:48 | 35.88144 | -102.95712 | 23314 ft | 348 kts | 165° |
| 2026-04-19 17:48 | 35.85870 | -102.94670 | 23315 ft | 348 kts | 165° |
| 2026-04-19 17:49 | 35.83624 | -102.93642 | 23319 ft | 347 kts | 165° |
| 2026-04-19 17:49 | 35.81355 | -102.92604 | 23319 ft | 347 kts | 165° |
| 2026-04-19 17:49 | 35.79115 | -102.91464 | 23318 ft | 350 kts | 159° |
| 2026-04-19 17:49 | 35.76979 | -102.90057 | 23316 ft | 351 kts | 156° |
| 2026-04-19 17:50 | 35.74827 | -102.88593 | 23317 ft | 351 kts | 156° |
| 2026-04-19 17:50 | 35.72696 | -102.87144 | 23315 ft | 351 kts | 156° |
| 2026-04-19 17:50 | 35.70548 | -102.85688 | 23321 ft | 351 kts | 156° |
| 2026-04-19 17:50 | 35.68423 | -102.84250 | 23327 ft | 351 kts | 156° |
| 2026-04-19 17:51 | 35.66279 | -102.82802 | 23326 ft | 351 kts | 156° |
| 2026-04-19 17:51 | 35.64154 | -102.81369 | 23325 ft | 351 kts | 156° |
| 2026-04-19 17:51 | 35.62009 | -102.79924 | 23329 ft | 351 kts | 156° |
| 2026-04-19 17:51 | 35.59848 | -102.78471 | 23326 ft | 351 kts | 156° |
| 2026-04-19 17:52 | 35.57704 | -102.77030 | 23324 ft | 352 kts | 156° |
| 2026-04-19 17:52 | 35.55572 | -102.75599 | 23320 ft | 352 kts | 156° |
| 2026-04-19 17:52 | 35.53411 | -102.74149 | 23321 ft | 352 kts | 156° |
| 2026-04-19 17:52 | 35.51282 | -102.72722 | 23321 ft | 352 kts | 156° |
| 2026-04-19 17:53 | 35.49130 | -102.71281 | 23321 ft | 352 kts | 156° |
| 2026-04-19 17:53 | 35.46986 | -102.69846 | 23321 ft | 352 kts | 156° |
| 2026-04-19 17:53 | 35.44830 | -102.68404 | 23324 ft | 352 kts | 156° |
| 2026-04-19 17:53 | 35.42679 | -102.66966 | 23321 ft | 352 kts | 156° |
| 2026-04-19 17:54 | 35.40530 | -102.65530 | 23331 ft | 352 kts | 156° |
| 2026-04-19 17:54 | 35.38400 | -102.64108 | 23332 ft | 352 kts | 156° |
| 2026-04-19 17:54 | 35.36243 | -102.62669 | 23330 ft | 353 kts | 156° |
| 2026-04-19 17:54 | 35.34080 | -102.61227 | 23323 ft | 353 kts | 156° |
| 2026-04-19 17:55 | 35.31948 | -102.59806 | 23328 ft | 353 kts | 156° |
| 2026-04-19 17:55 | 35.29779 | -102.58362 | 23326 ft | 353 kts | 156° |
| 2026-04-19 17:55 | 35.27607 | -102.56916 | 23323 ft | 353 kts | 156° |
| 2026-04-19 17:55 | 35.25451 | -102.55482 | 23324 ft | 353 kts | 156° |
| 2026-04-19 17:56 | 35.23305 | -102.54056 | 23325 ft | 353 kts | 156° |
| 2026-04-19 17:56 | 35.21131 | -102.52612 | 23328 ft | 353 kts | 156° |
| 2026-04-19 17:56 | 35.18993 | -102.51193 | 23327 ft | 354 kts | 156° |
| 2026-04-19 17:56 | 35.16823 | -102.49752 | 23328 ft | 354 kts | 156° |
| 2026-04-19 17:57 | 35.14651 | -102.48312 | 23330 ft | 354 kts | 156° |
| 2026-04-19 17:57 | 35.12481 | -102.46874 | 23327 ft | 354 kts | 156° |
| 2026-04-19 17:57 | 35.10326 | -102.45448 | 23330 ft | 354 kts | 156° |
| 2026-04-19 17:57 | 35.08156 | -102.44011 | 23335 ft | 354 kts | 156° |
| 2026-04-19 17:58 | 35.05985 | -102.42574 | 23335 ft | 354 kts | 156° |
| 2026-04-19 17:58 | 35.03818 | -102.41142 | 23334 ft | 354 kts | 156° |
| 2026-04-19 17:58 | 35.01658 | -102.39715 | 23337 ft | 354 kts | 156° |
| 2026-04-19 17:58 | 34.99495 | -102.38287 | 23348 ft | 354 kts | 156° |
| 2026-04-19 17:59 | 34.97325 | -102.36855 | 23350 ft | 354 kts | 156° |
| 2026-04-19 17:59 | 34.95175 | -102.35436 | 23359 ft | 353 kts | 156° |
| 2026-04-19 17:59 | 34.93010 | -102.34010 | 23363 ft | 353 kts | 156° |
| 2026-04-19 17:59 | 34.90859 | -102.32592 | 23365 ft | 352 kts | 156° |
| 2026-04-19 18:00 | 34.88688 | -102.31163 | 23368 ft | 352 kts | 157° |
| 2026-04-19 18:00 | 34.86550 | -102.29756 | 23373 ft | 351 kts | 157° |
| 2026-04-19 18:00 | 34.84385 | -102.28333 | 23376 ft | 352 kts | 157° |
| 2026-04-19 18:00 | 34.82236 | -102.26922 | 23372 ft | 353 kts | 157° |
| 2026-04-19 18:01 | 34.80065 | -102.25497 | 23370 ft | 354 kts | 157° |
| 2026-04-19 18:01 | 34.77913 | -102.24085 | 23368 ft | 355 kts | 157° |
| 2026-04-19 18:01 | 34.75740 | -102.22660 | 23367 ft | 355 kts | 157° |
| 2026-04-19 18:01 | 34.73557 | -102.21230 | 23353 ft | 357 kts | 157° |
| 2026-04-19 18:02 | 34.71370 | -102.19797 | 23348 ft | 357 kts | 157° |
| 2026-04-19 18:02 | 34.69198 | -102.18375 | 23345 ft | 358 kts | 157° |
| 2026-04-19 18:02 | 34.66996 | -102.16934 | 23340 ft | 358 kts | 157° |
| 2026-04-19 18:02 | 34.64817 | -102.15509 | 23340 ft | 358 kts | 157° |
| 2026-04-19 18:03 | 34.62611 | -102.14067 | 23312 ft | 358 kts | 157° |
| 2026-04-19 18:03 | 34.60413 | -102.12628 | 22941 ft | 356 kts | 156° |
| 2026-04-19 18:03 | 34.58258 | -102.11217 | 22505 ft | 357 kts | 156° |
| 2026-04-19 18:03 | 34.56068 | -102.09786 | 22043 ft | 358 kts | 156° |
| 2026-04-19 18:04 | 34.53881 | -102.08360 | 21570 ft | 359 kts | 156° |
| 2026-04-19 18:04 | 34.51684 | -102.06927 | 21092 ft | 359 kts | 156° |
| 2026-04-19 18:04 | 34.49463 | -102.05479 | 20605 ft | 360 kts | 155° |
| 2026-04-19 18:04 | 34.47291 | -102.04066 | 20133 ft | 359 kts | 155° |
| 2026-04-19 18:05 | 34.45082 | -102.02628 | 19653 ft | 359 kts | 155° |
| 2026-04-19 18:05 | 34.42891 | -102.01204 | 19174 ft | 358 kts | 155° |
| 2026-04-19 18:05 | 34.40699 | -101.99779 | 18699 ft | 357 kts | 155° |
| 2026-04-19 18:05 | 34.38514 | -101.98360 | 18224 ft | 356 kts | 155° |
| 2026-04-19 18:06 | 34.36357 | -101.96960 | 17750 ft | 354 kts | 154° |
| 2026-04-19 18:06 | 34.34187 | -101.95554 | 17280 ft | 353 kts | 154° |
| 2026-04-19 18:06 | 34.32027 | -101.94154 | 16808 ft | 351 kts | 154° |
| 2026-04-19 18:06 | 34.29876 | -101.92761 | 16046 ft | 358 kts | 154° |
| 2026-04-19 18:07 | 34.25509 | -101.89935 | 15003 ft | 352 kts | 154° |
| 2026-04-19 18:07 | 34.23392 | -101.88563 | 14520 ft | 347 kts | 153° |
| 2026-04-19 18:07 | 34.21294 | -101.87204 | 14062 ft | 337 kts | 153° |
| 2026-04-19 18:08 | 34.19244 | -101.85877 | 13620 ft | 328 kts | 153° |
| 2026-04-19 18:08 | 34.17278 | -101.84600 | 13195 ft | 320 kts | 153° |
| 2026-04-19 18:08 | 34.15336 | -101.83341 | 12766 ft | 313 kts | 154° |
| 2026-04-19 18:08 | 34.13449 | -101.82138 | 12359 ft | 306 kts | 153° |
| 2026-04-19 18:09 | 34.11583 | -101.80951 | 11924 ft | 301 kts | 155° |
| 2026-04-19 18:09 | 34.09566 | -101.80271 | 11238 ft | 299 kts | 181° |
| 2026-04-19 18:09 | 34.07649 | -101.80922 | 10919 ft | 286 kts | 211° |
| 2026-04-19 18:09 | 34.06108 | -101.82392 | 10548 ft | 279 kts | 218° |
| 2026-04-19 18:10 | 34.04375 | -101.83297 | 10198 ft | 271 kts | 188° |
| 2026-04-19 18:10 | 34.02515 | -101.83338 | 9867 ft | 266 kts | 179° |
| 2026-04-19 18:10 | 34.00689 | -101.83283 | 9519 ft | 262 kts | 179° |
| 2026-04-19 18:10 | 33.98867 | -101.83225 | 9143 ft | 259 kts | 178° |
| 2026-04-19 18:11 | 33.97104 | -101.83134 | 8761 ft | 254 kts | 179° |
| 2026-04-19 18:11 | 33.95341 | -101.83095 | 8394 ft | 249 kts | 180° |
| 2026-04-19 18:11 | 33.93645 | -101.83083 | 8068 ft | 243 kts | 180° |
| 2026-04-19 18:11 | 33.91970 | -101.83072 | 7739 ft | 237 kts | 179° |
| 2026-04-19 18:12 | 33.90348 | -101.83058 | 7426 ft | 232 kts | 179° |
| 2026-04-19 18:12 | 33.88739 | -101.83048 | 7130 ft | 226 kts | 179° |
| 2026-04-19 18:12 | 33.87182 | -101.83036 | 6842 ft | 221 kts | 179° |
| 2026-04-19 18:12 | 33.85659 | -101.83025 | 6550 ft | 216 kts | 179° |
| 2026-04-19 18:13 | 33.84170 | -101.83013 | 6266 ft | 209 kts | 179° |
| 2026-04-19 18:13 | 33.82753 | -101.83003 | 5982 ft | 202 kts | 179° |
| 2026-04-19 18:13 | 33.81374 | -101.82994 | 5722 ft | 194 kts | 179° |
| 2026-04-19 18:13 | 33.80074 | -101.82987 | 5504 ft | 178 kts | 179° |
| 2026-04-19 18:14 | 33.78861 | -101.82978 | 5297 ft | 169 kts | 179° |
| 2026-04-19 18:14 | 33.77709 | -101.82973 | 5133 ft | 162 kts | 179° |
| 2026-04-19 18:14 | 33.76585 | -101.82967 | 4909 ft | 163 kts | 179° |
| 2026-04-19 18:14 | 33.75452 | -101.82960 | 4687 ft | 161 kts | 178° |
| 2026-04-19 18:15 | 33.74355 | -101.82950 | 4453 ft | 154 kts | 179° |
| 2026-04-19 18:15 | 33.73294 | -101.82945 | 4262 ft | 149 kts | 179° |
| 2026-04-19 18:15 | 33.72276 | -101.82938 | 4077 ft | 144 kts | 178° |
| 2026-04-19 18:15 | 33.71291 | -101.82938 | 3885 ft | 142 kts | 179° |
| 2026-04-19 18:16 | 33.70297 | -101.82927 | 3739 ft | 141 kts | 178° |
| 2026-04-19 18:16 | 33.69314 | -101.82912 | 3549 ft | 142 kts | 179° |
| 2026-04-19 18:16 | 33.68332 | -101.82905 | 3354 ft | 142 kts | 179° |
| 2026-04-19 18:16 | 33.67380 | -101.82899 | 3273 ft | 118 kts | 180° |
| 2026-04-19 18:17 | 33.66796 | -101.82893 | 3261 ft | 34 kts | 179° |
| 2026-04-19 18:17 | 33.66772 | -101.82852 | 3261 ft | 9 kts | 19° |
| 2026-04-19 18:17 | 33.66832 | -101.82818 | 3261 ft | 9 kts | 27° |
| 2026-04-19 18:17 | 33.66882 | -101.82780 | 3262 ft | 7 kts | 40° |
| 2026-04-19 18:18 | 33.66897 | -101.82722 | 3263 ft | 8 kts | 108° |
| 2026-04-19 18:18 | 33.66838 | -101.82697 | 3261 ft | 11 kts | 180° |
| 2026-04-19 18:18 | 33.66740 | -101.82697 | 3261 ft | 15 kts | 181° |
| 2026-04-19 18:18 | 33.66615 | -101.82696 | 3261 ft | 20 kts | 180° |
| 2026-04-19 18:19 | 33.66463 | -101.82695 | 3261 ft | 22 kts | 179° |
| 2026-04-19 18:19 | 33.66312 | -101.82694 | 3258 ft | 21 kts | 180° |
| 2026-04-19 18:19 | 33.66173 | -101.82692 | 3258 ft | 18 kts | 179° |
| 2026-04-19 18:19 | 33.66050 | -101.82687 | 3258 ft | 14 kts | 154° |
| 2026-04-19 18:20 | 33.66029 | -101.82556 | 3258 ft | 19 kts | 90° |
| 2026-04-19 18:20 | 33.66022 | -101.82400 | 3258 ft | 14 kts | 128° |
| 2026-04-19 18:20 | 33.65924 | -101.82373 | 3258 ft | 15 kts | 166° |
| 2026-04-19 18:20 | 33.65822 | -101.82314 | 3258 ft | 15 kts | 152° |
| 2026-04-19 18:21 | 33.65806 | -101.82219 | 3260 ft | 13 kts | 74° |
| 2026-04-19 18:21 | 33.65815 | -101.82098 | 3261 ft | 16 kts | 89° |
| 2026-04-19 18:21 | 33.65815 | -101.81975 | 3261 ft | 11 kts | 90° |
| 2026-04-19 18:21 | 33.65803 | -101.81883 | 3261 ft | 11 kts | 133° |
| 2026-04-19 18:22 | 33.65755 | -101.81887 | 3261 ft | 5 kts | 249° |
| 2026-04-19 18:22 | 33.65757 | -101.81930 | 3261 ft | 3 kts | 276° |
| 2026-04-19 18:22 | 33.65757 | -101.81934 | 3261 ft | 0 kts | 276° |